Data for 10/15/2009

Time Sea-Level Adjusted Pressure Absolute Pressure Temperature Relative Humidity Dew Point   
(mb) (inHg) (mb) (inHg) (C) (F) (%) (C) (F)
00:05 1018 30.06 847 25.01 6.9 44.4 71 2 35.6
00:10 1018 30.06 847 25.01 6.7 44 71 1.7 35
00:15 1018 30.06 847 25.01 6.6 43.9 71 1.8 35.3
00:20 1018 30.06 847 25.01 6.8 44.3 72 2.1 35.8
00:25 1018 30.06 847 25.01 6.9 44.4 72 2.2 35.9
00:30 1018 30.06 847 25.01 6.9 44.4 71 2.1 35.8
00:35 1018 30.06 847 25.01 7.1 44.7 72 2.4 36.3
00:40 1018 30.06 847 25.01 6.9 44.5 74 2.5 36.6
00:45 1018 30.06 847 25.01 6.9 44.5 74 2.6 36.6
00:50 1018 30.06 847 25.01 6.9 44.4 74 2.6 36.7
00:55 1018 30.06 847 25.01 6.9 44.4 74 2.6 36.7
01:00 1018 30.06 847 25.01 6.9 44.4 73 2.4 36.3
01:05 1018 30.06 848 25.04 6.9 44.5 73 2.5 36.5
01:10 1018 30.06 848 25.04 6.9 44.5 72 2.3 36.2
01:15 1018 30.06 848 25.04 7 44.6 72 2.3 36.2
01:20 1018 30.06 848 25.04 7 44.6 72 2.4 36.2
01:25 1018 30.06 848 25.04 7 44.6 71 2.1 35.7
01:30 1018 30.06 848 25.04 7.1 44.7 72 2.3 36.1
01:35 1018 30.06 848 25.04 7 44.6 71 2.1 35.8
01:40 1018 30.06 848 25.04 7 44.6 70 1.9 35.5
01:45 1018 30.06 848 25.04 7 44.6 71 2.2 35.9
01:50 1018 30.06 848 25.04 6.9 44.4 72 2.2 35.9
01:55 1018 30.06 848 25.04 6.8 44.2 72 2.1 35.8
02:00 1018 30.06 848 25.04 6.8 44.2 72 2 35.7
02:05 1018 30.06 848 25.04 6.9 44.3 72 2.1 35.8
02:10 1018 30.06 848 25.04 6.9 44.5 71 2 35.6
02:15 1019 30.09 848 25.04 6.9 44.5 72 2.2 35.9
02:20 1019 30.09 848 25.04 6.8 44.3 71 1.9 35.4
02:25 1019 30.09 848 25.04 6.9 44.4 69 1.7 35
02:30 1019 30.09 848 25.04 6.9 44.4 69 1.6 35
02:35 1019 30.09 848 25.04 6.8 44.3 70 1.7 35
02:40 1019 30.09 848 25.04 6.9 44.4 69 1.6 34.9
02:45 1019 30.09 848 25.04 6.9 44.3 70 1.8 35.2
02:50 1019 30.09 848 25.04 6.7 44.1 71 1.8 35.3
02:55 1019 30.09 848 25.04 6.6 43.9 72 1.9 35.4
03:00 1019 30.09 848 25.04 6.7 44.1 72 1.9 35.5
03:05 1019 30.09 848 25.04 6.8 44.3 71 1.8 35.3
03:10 1019 30.09 848 25.04 6.9 44.4 70 1.8 35.2
03:15 1019 30.09 848 25.04 6.8 44.3 71 2 35.6
03:20 1019 30.09 848 25.04 6.6 43.9 72 1.9 35.4
03:25 1019 30.09 848 25.04 6.6 43.9 72 1.9 35.4
03:30 1019 30.09 848 25.04 6.5 43.8 73 2.1 35.7
03:35 1019 30.09 848 25.04 6.5 43.8 73 2 35.6
03:40 1019 30.09 848 25.04 6.6 43.9 73 2.2 35.9
03:45 1019 30.09 848 25.04 6.7 44.1 70 1.5 34.8
03:50 1019 30.09 848 25.04 7.4 45.3 67 1.7 35.1
03:55 1019 30.09 848 25.04 7.5 45.5 68 1.9 35.4
04:00 1019 30.09 849 25.07 7.5 45.4 68 1.9 35.4
04:05 1019 30.09 849 25.07 7.3 45.2 69 2 35.7
04:10 1019 30.09 849 25.07 7.1 44.8 69 1.9 35.5
04:15 1019 30.09 849 25.07 7 44.6 69 1.7 35.1
04:20 1019 30.09 849 25.07 7 44.7 69 1.8 35.3
04:25 1019 30.09 849 25.07 7 44.6 70 1.9 35.4
04:30 1019 30.09 849 25.07 7 44.5 69 1.6 34.9
04:35 1019 30.09 849 25.07 7.1 44.8 69 1.9 35.4
04:40 1019 30.09 849 25.07 7 44.6 70 1.9 35.4
04:45 1019 30.09 849 25.07 6.9 44.5 70 1.9 35.5
04:50 1019 30.09 849 25.07 6.7 44.1 72 2.1 35.8
04:55 1019 30.09 849 25.07 6.6 43.8 72 1.9 35.5
05:00 1019 30.09 849 25.07 6.6 43.9 72 1.9 35.4
05:05 1020 30.12 849 25.07 6.7 44 71 1.9 35.4
05:10 1020 30.12 849 25.07 6.7 44.1 70 1.7 35.1
05:15 1020 30.12 849 25.07 6.8 44.3 70 1.8 35.2
05:20 1020 30.12 849 25.07 6.8 44.3 71 1.9 35.4
05:25 1020 30.12 849 25.07 6.8 44.2 71 1.8 35.3
05:30 1020 30.12 849 25.07 6.7 44.1 72 2.1 35.7
05:35 1020 30.12 849 25.07 6.5 43.6 73 2 35.6
05:40 1020 30.12 849 25.07 6.4 43.5 73 1.9 35.4
05:45 1020 30.12 850 25.1 6.4 43.4 73 2 35.5
05:50 1020 30.12 850 25.1 6.1 43.1 74 1.9 35.5
05:55 1020 30.12 849 25.07 6.1 43.1 73 1.6 34.9
06:00 1020 30.12 849 25.07 6.4 43.5 72 1.6 34.9
06:05 1020 30.12 850 25.1 6.5 43.7 71 1.7 35.1
06:10 1020 30.12 850 25.1 6.7 44 71 1.8 35.2
06:15 1021 30.15 850 25.1 6.7 44.1 71 1.9 35.4
06:20 1021 30.15 850 25.1 6.7 44 72 1.9 35.4
06:25 1021 30.15 850 25.1 6.6 43.9 72 1.9 35.4
06:30 1021 30.15 850 25.1 6.5 43.8 72 1.9 35.5
06:35 1021 30.15 850 25.1 6.5 43.7 72 1.9 35.4
06:40 1021 30.15 850 25.1 6.5 43.6 73 1.9 35.5
06:45 1021 30.15 850 25.1 6.5 43.6 73 1.9 35.4
06:50 1021 30.15 850 25.1 6.4 43.5 73 2 35.5
06:55 1021 30.15 850 25.1 6.3 43.3 75 2.2 35.9
07:00 1021 30.15 850 25.1 5.8 42.5 77 2 35.6
07:05 1021 30.15 850 25.1 5.7 42.3 76 1.8 35.3
07:10 1021 30.15 850 25.1 5.8 42.4 76 1.9 35.4
07:15 1021 30.15 850 25.1 5.7 42.2 77 1.9 35.5
07:20 1021 30.15 850 25.1 5.6 42.1 77 1.9 35.4
07:25 1021 30.15 850 25.1 5.5 41.9 78 2 35.6
07:30 1021 30.15 850 25.1 5.3 41.5 79 2 35.5
07:35 1021 30.15 851 25.13 5.2 41.3 78 1.7 35.1
07:40 1021 30.15 851 25.13 5.6 42 76 1.7 35
07:45 1021 30.15 851 25.13 5.8 42.5 76 1.9 35.4
07:50 1021 30.15 851 25.13 5.6 42.2 77 1.9 35.4
07:55 1021 30.15 851 25.13 5.7 42.2 77 1.9 35.4
08:00 1021 30.15 850 25.1 5.5 41.8 77 1.7 35.1
08:05 1021 30.15 850 25.1 5.5 41.9 77 1.7 35.1
08:10 1021 30.15 850 25.1 5.6 42.2 76 1.7 35
08:15 1021 30.15 850 25.1 5.8 42.5 75 1.8 35.2
08:20 1021 30.15 851 25.13 5.9 42.6 74 1.7 35
08:25 1021 30.15 851 25.13 6.2 43.2 73 1.8 35.3
08:30 1021 30.15 851 25.13 6.5 43.8 72 1.9 35.5
08:35 1021 30.15 851 25.13 6.2 43.1 75 2 35.7
08:40 1022 30.18 851 25.13 6.3 43.4 73 1.8 35.3
08:45 1022 30.18 851 25.13 7 44.6 71 2.2 35.9
08:50 1022 30.18 851 25.13 7.5 45.4 69 2.2 36
08:55 1022 30.18 851 25.13 7.4 45.4 68 1.9 35.3
09:00 1022 30.18 851 25.13 7.8 46 68 2.3 36.2
09:05 1022 30.18 851 25.13 7.7 45.8 68 2.3 36.1
09:10 1022 30.18 851 25.13 7.6 45.6 69 2.2 36
09:15 1022 30.18 852 25.16 7.6 45.7 69 2.4 36.4
09:20 1022 30.18 852 25.16 7.8 46 67 2 35.6
09:25 1023 30.21 852 25.16 8 46.3 67 2.3 36.2
09:30 1023 30.21 852 25.16 8.3 47 66 2.4 36.2
09:35 1023 30.21 852 25.16 8.3 47 66 2.3 36.2
09:40 1023 30.21 852 25.16 9 48.2 63 2.4 36.4
09:45 1023 30.21 852 25.16 8.8 47.8 64 2.5 36.5
09:50 1023 30.21 852 25.16 8.5 47.4 66 2.5 36.6
09:55 1023 30.21 852 25.16 8.8 47.9 63 2.3 36.1
10:00 1023 30.21 852 25.16 9.8 49.6 60 2.4 36.3
10:05 1023 30.21 852 25.16 10 50 61 2.9 37.1
10:10 1023 30.21 852 25.16 10.1 50.3 58 2.3 36.2
10:15 1023 30.21 852 25.16 10.5 50.9 56 2.2 35.9
10:20 1023 30.21 852 25.16 11.1 52 56 2.8 37
10:25 1023 30.21 852 25.16 11.1 51.9 54 2.1 35.8
10:30 1023 30.21 852 25.16 11.6 52.8 53 2.5 36.4
10:35 1023 30.21 852 25.16 12 53.5 52 2.6 36.6
10:40 1023 30.21 852 25.16 11.6 52.8 55 2.9 37.2
10:45 1023 30.21 852 25.16 11.3 52.4 56 2.8 37.1
10:50 1023 30.21 852 25.16 11.4 52.5 56 3 37.4
10:55 1023 30.21 852 25.16 10.7 51.2 58 2.8 37
11:00 1023 30.21 852 25.16 10.4 50.7 60 3 37.4
11:05 1023 30.21 852 25.16 9.9 49.9 62 3 37.4
11:10 1023 30.21 852 25.16 9.7 49.5 61 2.5 36.5
11:15 1023 30.21 852 25.16 9.6 49.2 61 2.5 36.5
11:20 1023 30.21 852 25.16 9.9 49.7 60 2.6 36.6
11:25 1023 30.21 852 25.16 9.9 49.8 58 2 35.7
11:30 1023 30.21 852 25.16 9.8 49.6 57 1.6 34.9
11:35 1023 30.21 852 25.16 9.9 49.8 53 0.9 33.6
11:40 1023 30.21 852 25.16 10.1 50.2 51 0.6 33.1
11:45 1023 30.21 852 25.16 10.2 50.4 52 0.7 33.3
11:50 1023 30.21 852 25.16 10.1 50.1 52 0.7 33.3
11:55 1023 30.21 852 25.16 10 50 53 0.9 33.6
12:00 1023 30.21 852 25.16 10.5 50.9 50 0.5 32.8
12:05 1023 30.21 852 25.16 11.2 52.1 46 0.1 32.2
12:10 1023 30.21 852 25.16 11.4 52.4 46 0.3 32.5
12:15 1023 30.21 853 25.19 11.8 53.2 50 1.7 35.1
12:20 1023 30.21 853 25.19 11.3 52.4 38 -2.4 27.6
12:25 1023 30.21 853 25.19 11.5 52.7 36 -3.1 26.5
12:30 1023 30.21 853 25.19 11.6 52.9 37 -2.5 27.6
12:35 1023 30.21 853 25.19 11.5 52.7 38 -2.4 27.7
12:40 1023 30.21 853 25.19 11.4 52.5 37 -2.6 27.3
12:45 1023 30.21 853 25.19 12 53.6 38 -2 28.4
12:50 1023 30.21 852 25.16 12.2 54 34 -3 26.7
12:55 1023 30.21 853 25.19 12.1 53.7 33 -3.5 25.8
13:00 1023 30.21 853 25.19 12.1 53.8 33 -3.4 25.8
13:05 1023 30.21 853 25.19 12.3 54.1 33 -3.5 25.7
13:10 1023 30.21 852 25.16 12.3 54.1 30 -4.7 23.6
13:15 1023 30.21 852 25.16 12.1 53.8 30 -5.1 22.8
13:20 1023 30.21 852 25.16 12.2 54 29 -5.3 22.5
13:25 1023 30.21 852 25.16 12.2 54 29 -5.3 22.5
13:30 1023 30.21 852 25.16 12.3 54.1 30 -4.8 23.4
13:35 1023 30.21 852 25.16 12.3 54.2 29 -5 23
13:40 1023 30.21 852 25.16 12.4 54.3 29 -5.2 22.7
13:45 1023 30.21 852 25.16 12.5 54.6 29 -4.8 23.3
13:50 1023 30.21 852 25.16 12.8 55 29 -4.7 23.6
13:55 1023 30.21 852 25.16 12.7 54.9 29 -5 23.1
14:00 1023 30.21 852 25.16 13 55.4 29 -4.4 24.1
14:05 1023 30.21 852 25.16 13.5 56.2 29 -4.3 24.3
14:10 1023 30.21 852 25.16 13.6 56.5 29 -4 24.9
14:15 1023 30.21 852 25.16 13.2 55.8 31 -3.6 25.5
14:20 1023 30.21 852 25.16 13.4 56.1 29 -4.2 24.5
14:25 1023 30.21 852 25.16 13.7 56.6 30 -3.5 25.7
14:30 1023 30.21 852 25.16 13.4 56.2 30 -3.7 25.4
14:35 1023 30.21 852 25.16 12.7 54.9 31 -3.8 25.2
14:40 1023 30.21 852 25.16 12.9 55.3 31 -3.7 25.4
14:45 1023 30.21 852 25.16 13.1 55.5 31 -3.6 25.5
14:50 1023 30.21 852 25.16 12.9 55.2 31 -3.9 25.1
14:55 1023 30.21 852 25.16 12.8 55.1 31 -3.7 25.4
15:00 1023 30.21 852 25.16 12.9 55.2 30 -4.1 24.7
15:05 1023 30.21 852 25.16 13 55.4 31 -3.8 25.1
15:10 1023 30.21 852 25.16 13.8 56.9 31 -3.1 26.4
15:15 1023 30.21 852 25.16 13.9 57 30 -3.5 25.7
15:20 1023 30.21 852 25.16 13.2 55.7 31 -3.5 25.6
15:25 1023 30.21 852 25.16 13.1 55.6 32 -3.2 26.2
15:30 1023 30.21 852 25.16 13.1 55.6 31 -3.5 25.7
15:35 1023 30.21 852 25.16 12.8 55.1 32 -3.6 25.6
15:40 1023 30.21 852 25.16 12.7 54.8 32 -3.4 25.9
15:45 1023 30.21 852 25.16 12.5 54.6 33 -3.2 26.3
15:50 1023 30.21 852 25.16 12.6 54.8 33 -3.3 26
15:55 1023 30.21 852 25.16 12.9 55.2 33 -3 26.5
16:00 1023 30.21 852 25.16 13 55.4 32 -3.2 26.2
16:05 1023 30.21 852 25.16 12.9 55.2 33 -3.1 26.5
16:10 1023 30.21 852 25.16 12.9 55.2 32 -3.3 26.1
16:15 1023 30.21 852 25.16 13.1 55.7 32 -3.1 26.4
16:20 1023 30.21 852 25.16 13 55.4 33 -2.9 26.8
16:25 1023 30.21 852 25.16 12.9 55.2 33 -2.9 26.7
16:30 1023 30.21 852 25.16 12.8 55 33 -3 26.6
16:35 1023 30.21 852 25.16 13.1 55.5 33 -3 26.7
16:40 1023 30.21 852 25.16 13.2 55.7 32 -3 26.6
16:45 1023 30.21 852 25.16 13 55.4 32 -3.2 26.3
16:50 1023 30.21 852 25.16 12.8 55 32 -3.4 25.9
16:55 1023 30.21 853 25.19 12.8 55 33 -3 26.7
17:00 1023 30.21 852 25.16 13 55.3 33 -2.9 26.8
17:05 1023 30.21 852 25.16 13 55.4 34 -2.6 27.3
17:10 1023 30.21 852 25.16 12.9 55.1 33 -2.8 27
17:15 1023 30.21 853 25.19 12.6 54.7 34 -2.7 27.2
17:20 1023 30.21 853 25.19 12.5 54.6 33 -3.2 26.2
17:25 1023 30.21 853 25.19 12.4 54.3 34 -3.1 26.4
17:30 1023 30.21 853 25.19 12.4 54.3 34 -3 26.5
17:35 1023 30.21 853 25.19 12.3 54.2 35 -2.7 27.2
17:40 1024 30.24 853 25.19 12.2 54 35 -2.6 27.3
17:45 1024 30.24 853 25.19 12.1 53.8 35 -2.7 27.1
17:50 1024 30.24 853 25.19 12 53.6 37 -2.4 27.7
17:55 1024 30.24 853 25.19 11.9 53.3 37 -2.3 27.9
18:00 1024 30.24 853 25.19 11.7 53.1 37 -2.5 27.5
18:05 1024 30.24 853 25.19 11.7 53 36 -2.9 26.9
18:10 1024 30.24 853 25.19 11.7 53.1 36 -2.8 26.9
18:15 1024 30.24 853 25.19 11.8 53.3 36 -2.6 27.4
18:20 1024 30.24 853 25.19 11.7 53.1 37 -2.3 27.9
18:25 1024 30.24 853 25.19 11.5 52.6 39 -2 28.4
18:30 1024 30.24 853 25.19 11 51.8 40 -1.9 28.5
18:35 1024 30.24 853 25.19 10.7 51.3 42 -1.8 28.8
18:40 1024 30.24 853 25.19 10.4 50.8 42 -1.9 28.5
18:45 1024 30.24 853 25.19 10.3 50.5 42 -2 28.3
18:50 1024 30.24 853 25.19 10.3 50.5 41 -2.4 27.8
18:55 1024 30.24 853 25.19 10.2 50.4 41 -2.4 27.8
19:00 1024 30.24 853 25.19 10.2 50.3 41 -2.3 27.8
19:05 1024 30.24 854 25.22 10.2 50.3 42 -2.1 28.2
19:10 1024 30.24 854 25.22 10.2 50.3 41 -2.3 27.8
19:15 1024 30.24 854 25.22 10.2 50.4 42 -2.3 27.9
19:20 1024 30.24 854 25.22 10.1 50.3 43 -1.9 28.5
19:25 1025 30.27 854 25.22 9.9 49.8 44 -1.9 28.7
19:30 1025 30.27 854 25.22 9.8 49.6 45 -1.7 28.9
19:35 1025 30.27 854 25.22 9.6 49.3 45 -1.6 29.1
19:40 1025 30.27 854 25.22 9.5 49.1 46 -1.5 29.3
19:45 1025 30.27 854 25.22 9.3 48.8 47 -1.4 29.4
19:50 1025 30.27 854 25.22 9.2 48.6 48 -1.2 29.9
19:55 1025 30.27 854 25.22 9 48.3 49 -1.2 29.8
20:00 1025 30.27 854 25.22 8.8 47.9 48 -1.5 29.3
20:05 1025 30.27 854 25.22 8.8 47.8 48 -1.5 29.3
20:10 1025 30.27 854 25.22 8.8 47.8 48 -1.5 29.3
20:15 1025 30.27 854 25.22 8.8 47.8 48 -1.6 29.2
20:20 1025 30.27 854 25.22 8.7 47.6 49 -1.5 29.3
20:25 1025 30.27 854 25.22 8.6 47.6 49 -1.6 29.2
20:30 1025 30.27 854 25.22 8.6 47.5 49 -1.6 29.1
20:35 1025 30.27 855 25.25 8.6 47.5 49 -1.6 29.1
20:40 1025 30.27 855 25.25 8.6 47.4 49 -1.4 29.4
20:45 1025 30.27 855 25.25 8.2 46.8 52 -1 30.2
20:50 1025 30.27 855 25.25 7.1 44.8 56 -1.1 30
20:55 1025 30.27 855 25.25 6.3 43.4 58 -1.2 29.9
21:00 1025 30.27 855 25.25 6.2 43.1 58 -1.5 29.3
21:05 1026 30.3 855 25.25 6.6 43.9 55 -1.7 28.9
21:10 1026 30.3 855 25.25 6.9 44.4 56 -1.3 29.6
21:15 1026 30.3 855 25.25 6.8 44.3 56 -1.3 29.6
21:20 1026 30.3 855 25.25 6.8 44.2 56 -1.4 29.6
21:25 1026 30.3 855 25.25 6.8 44.2 56 -1.2 29.8
21:30 1026 30.3 855 25.25 6.6 43.8 57 -1.3 29.6
21:35 1026 30.3 855 25.25 6.4 43.6 58 -1.2 29.8
21:40 1025 30.27 855 25.25 6.1 43 59 -1.3 29.7
21:45 1025 30.27 855 25.25 5.9 42.6 60 -1.2 29.8
21:50 1025 30.27 855 25.25 5.4 41.8 62 -1.3 29.7
21:55 1025 30.27 855 25.25 5.1 41.2 64 -1 30.2
22:00 1025 30.27 855 25.25 4.9 40.9 64 -1.3 29.6
22:05 1025 30.27 855 25.25 4.8 40.6 64 -1.5 29.2
22:10 1026 30.3 855 25.25 4.8 40.7 64 -1.4 29.4
22:15 1025 30.27 855 25.25 5 41.1 62 -1.6 29
22:20 1025 30.27 855 25.25 5.4 41.7 60 -1.8 28.8
22:25 1025 30.27 855 25.25 5.5 41.9 60 -1.6 29.1
22:30 1025 30.27 855 25.25 5.4 41.7 61 -1.4 29.4
22:35 1026 30.3 855 25.25 5.2 41.4 61 -1.6 29.2
22:40 1026 30.3 855 25.25 5.3 41.5 62 -1.4 29.4
22:45 1026 30.3 855 25.25 4.8 40.7 64 -1.4 29.6
22:50 1026 30.3 855 25.25 4.5 40 66 -1.3 29.6
22:55 1026 30.3 855 25.25 4.4 39.9 66 -1.4 29.4
23:00 1026 30.3 855 25.25 4.4 39.9 66 -1.5 29.3
23:05 1026 30.3 855 25.25 4.7 40.5 64 -1.5 29.3
23:10 1026 30.3 855 25.25 4.8 40.7 64 -1.4 29.4
23:15 1026 30.3 855 25.25 4.9 40.8 64 -1.3 29.6
23:20 1026 30.3 855 25.25 4.7 40.5 65 -1.4 29.6
23:25 1026 30.3 855 25.25 4.4 40 66 -1.4 29.5
23:30 1026 30.3 855 25.25 4.1 39.4 67 -1.5 29.4
23:35 1026 30.3 855 25.25 3.9 39 68 -1.4 29.5
23:40 1026 30.3 855 25.25 3.5 38.3 70 -1.5 29.3
23:45 1026 30.3 855 25.25 3.3 38 70 -1.6 29.1
23:50 1026 30.3 855 25.25 3.3 37.9 70 -1.6 29.1
23:55 1026 30.3 855 25.25 3.3 37.9 71 -1.6 29.2